Terminal Aerodrome Forecast
Issued by NWS

Home | Current Version | Previous Version | Text Only | Print | Product List | Glossary Off
Versions: 1 2 3 4 5 6 7 8 9 10 11 12 13 14 15

206
FTUS45 KGGW 241433 AAA
TAFSDY
TAF AMD
KSDY 241433Z 2415/2512 34012KT P6SM VCSH OVC004
     FM241700 33017G25KT 4SM SHRA OVC006
     FM250000 32022G32KT 5SM SHRA OVC009
     FM250600 31021G31KT P6SM -SHRA OVC025
     FM250900 31017G25KT P6SM VCSH SCT100=

USA.gov is the U.S. government's official web portal to all federal, state and local government web resources and services.